• Join FlightAware (Why Join?)
  • Login
  • US Flag 
04:18PM EDT


 

Airport Tracker/Info


-or-


 

Live Flight TrackerFlight Track Log ✈ UAL341 ✈ 05-May-2013 ✈ KRNO - KDEN

Flight Track Log - Related Links

Times and Time Zones

All times are in EDT time to prevent confusion due to time zone crossing. See the UAL341 flight status page for this flight to view local times or setup timezone preferences in your user account.

Time Position Orientation Groundspeed Altitude Reporting Facility
EDT Latitude Longitude Course Direction KTS MPH feet Rate Location/Type
05:01PM 39.4333 -119.7333 54° Northeast 170 196 8,900  Level Northern Cal TRACON
05:02PM 39.4667 -119.6667 57° Northeast 227 261 10,200 1,560 Climbing Northern Cal TRACON
05:04PM 39.5144 -119.5839 53° Northeast 274 315 12,300 1,860 Climbing Oakland Center
05:05PM 39.5731 -119.4906 51° Northeast 322 371 14,200 1,980 Climbing Oakland Center
05:06PM 39.6378 -119.3842 52° Northeast 363 418 16,400 2,340 Climbing Oakland Center
05:07PM 40.0107 -118.7842 54° Northeast  Level FlightAware Approximate
05:07PM 39.7053 -119.2731 52° Northeast 384 442 19,000  Level Oakland Center
05:08PM 39.7753 -119.1581 52° Northeast 400 460 21,200 1,860 Climbing Oakland Center
05:10PM 39.9203 -118.9186 52° Northeast 421 484 24,800 1,560 Climbing Salt Lake Center
05:11PM 39.9958 -118.7933 52° Northeast 431 496 26,000 1,200 Climbing Oakland Center
05:12PM 40.0736 -118.6631 52° Northeast 448 516 27,300 1,380 Climbing Oakland Center
05:13PM 40.1403 -118.5203 59° Northeast 461 531 28,900 1,860 Climbing Oakland Center
05:14PM 40.1872 -118.3481 70° East 442 509 31,300 1,800 Climbing Salt Lake Center
05:15PM 40.2344 -118.1806 70° East 439 505 32,800 780 Climbing Salt Lake Center
05:16PM 40.2739 -118.0339 71° East 445 512 33,000 60 Climbing Salt Lake Center
05:17PM 40.3136 -117.8872 70° East 448 516 33,000  Level Oakland Center
05:18PM 40.3536 -117.7386 71° East 451 519 33,000  Level Oakland Center
05:19PM 40.3994 -117.5656 71° East 451 519 33,100 660 Climbing Oakland Center
05:20PM 40.4450 -117.3922 71° East 447 514 34,500 840 Climbing Salt Lake Center
05:21PM 40.4853 -117.2433 70° East 449 517 35,000 240 Climbing Salt Lake Center
05:22PM 40.5250 -117.0925 71° East 452 520 35,000  Level Salt Lake Center
05:23PM 40.5669 -116.9131 73° East 452 520 35,000  Level Salt Lake Center
05:24PM 40.5794 -116.7542 84° East 449 517 35,000  Level Salt Lake Center
05:25PM 40.5894 -116.5956 85° East 450 518 35,000  Level Salt Lake Center
05:26PM 40.6011 -116.4108 85° East 451 519 35,000  Level Salt Lake Center
05:27PM 40.6094 -116.2528 86° East 452 520 35,000  Level Salt Lake Center
05:28PM 40.6208 -116.0689 85° East 451 519 35,000  Level Salt Lake Center
05:29PM 40.6292 -115.9094 86° East 454 522 35,000  Level Salt Lake Center
05:30PM 40.6356 -115.7531 87° East 447 514 35,000  Level Salt Lake Center
05:31PM 40.6458 -115.5692 86° East 451 519 35,000  Level Salt Lake Center
05:32PM 40.6536 -115.4111 86° East 452 520 35,000  Level Salt Lake Center
05:33PM 40.6628 -115.2261 86° East 454 522 35,000  Level Salt Lake Center
05:34PM 40.6719 -115.0661 86° East 456 525 35,000  Level Salt Lake Center
05:35PM 40.6797 -114.8792 87° East 457 526 35,000  Level Salt Lake Center
05:36PM 40.6817 -114.7108 89° East 457 526 35,000  Level Salt Lake Center
05:37PM 40.6819 -114.5447 90° East 456 525 35,000  Level Salt Lake Center
05:39PM 40.6825 -114.3794 90° East 454 522 35,000  Level Salt Lake Center
05:40PM 40.6833 -114.2125 90° East 456 525 35,000  Level Salt Lake Center
05:41PM 40.6844 -114.0456 89° East 458 527 35,000  Level Salt Lake Center
05:42PM 40.6864 -113.8461 89° East 456 525 35,000  Level Salt Lake Center
05:43PM 40.6861 -113.6786 90° East 460 529 35,000  Level Salt Lake Center
05:44PM 40.6864 -113.5100 90° East 461 531 35,000  Level Salt Lake Center
05:45PM 40.6858 -113.3425 90° East 461 531 35,000  Level Salt Lake Center
05:46PM 40.6864 -113.1733 90° East 463 533 35,000  Level Salt Lake Center
05:47PM 40.6847 -113.0050 91° East 462 532 35,000  Level Salt Lake Center
05:48PM 40.6842 -112.8364 90° East 463 533 35,000  Level Salt Lake Center
05:49PM 40.6831 -112.6344 90° East 462 532 35,000  Level Salt Lake Center
05:50PM 40.6819 -112.4633 90° East 468 539 35,000  Level Salt Lake Center
05:51PM 40.6797 -112.2953 91° East 464 534 35,000  Level Salt Lake Center
05:53PM 40.6758 -111.9578 91° East 465 535 35,000  Level Salt Lake Center
05:54PM 40.6733 -111.7575 91° East 463 533 35,000  Level Salt Lake Center
05:55PM 40.6700 -111.5886 91° East 467 537 35,000  Level Salt Lake Center
05:57PM 40.6659 -111.3550 92° East  Level FlightAware Approximate
05:57PM 40.6650 -111.2517 92° East 463 533 35,000  Level Salt Lake Center
05:58PM 40.6614 -111.0836 92° East 461 531 35,000  Level Salt Lake Center
05:59PM 40.6586 -110.9150 91° East 463 533 35,000  Level Salt Lake Center
06:00PM 40.6528 -110.7111 92° East 466 536 35,000  Level Salt Lake Center
06:01PM 40.6478 -110.5486 92° East 465 535 35,000  Level Salt Lake Center
06:02PM 40.6433 -110.3625 92° East 460 529 35,000  Level Salt Lake Center
06:03PM 40.6389 -110.1989 92° East 457 526 35,000  Level Salt Lake Center
06:04PM 40.6339 -110.0383 92° East 459 528 35,000  Level Salt Lake Center
06:05PM 40.6286 -109.8494 92° East 462 532 35,000  Level Salt Lake Center
06:06PM 40.6233 -109.6869 92° East 464 534 35,000  Level Salt Lake Center
06:07PM 40.6172 -109.4967 92° East 465 535 35,100  Climbing Salt Lake Center
06:08PM 40.6094 -109.3017 93° East 471 542 35,000 -60 Descending Denver Center
06:10PM 40.6008 -109.1367 94° East 470 541 35,000  Level Denver Center
06:11PM 40.5917 -108.9450 94° East 469 540 35,000  Level Denver Center
06:12PM 40.5828 -108.7808 94° East 468 539 35,000  Level Denver Center
06:13PM 40.5742 -108.6175 94° East 466 536 35,000  Level Denver Center
06:14PM 40.5633 -108.4286 94° East 463 533 35,000  Level Denver Center
06:15PM 40.5536 -108.2675 94° East 461 531 35,000  Level Denver Center
06:16PM 40.5433 -108.0806 94° East 460 529 35,000  Level Denver Center
06:17PM 40.5342 -107.9183 94° East 463 533 35,000  Level Denver Center
06:18PM 40.5217 -107.7303 95° East 462 532 35,000  Level Denver Center
06:19PM 40.5114 -107.5675 95° East 465 535 35,000 -480 Level Denver Center
06:20PM 40.5022 -107.4089 94° East 457 526 34,100 -1,020 Descending Denver Center
06:21PM 40.4897 -107.2253 95° East 453 521 33,000 -540 Descending Denver Center
06:22PM 40.4794 -107.0650 95° East 458 527 33,000  Level Denver Center
06:23PM 40.4669 -106.8767 95° East 462 532 33,000 -300 Level Denver Center
06:24PM 40.4544 -106.7081 96° East 464 534 32,500 -780 Descending Denver Center
06:25PM 40.4433 -106.5403 95° East 463 533 31,500 -960 Descending Denver Center
06:26PM 40.4303 -106.3706 96° East 454 522 30,600 -840 Descending Denver Center
06:27PM 40.4200 -106.2397 96° East 451 519 29,800 -1,620 Descending Denver Center
06:28PM 40.4044 -106.0269 95° East 447 514 27,300 -2,220 Descending Denver Center
06:29PM 40.3908 -105.8653 96° East 443 510 25,300 -1,980 Descending Denver Center
06:30PM 40.3792 -105.7069 95° East 433 498 23,300 -1,800 Descending Denver Center
06:31PM 40.3664 -105.5550 96° East 418 481 21,600 -1,380 Descending Denver Center
06:32PM 40.3350 -105.3953 104° East 432 497 20,500 -1,320 Descending Denver Center
06:33PM 40.2683 -105.2789 127° Southeast 407 468 19,000 -1,440 Descending Denver Center
06:35PM 40.1339 -105.0411 126° Southeast 383 441 16,100 -1,440 Descending Denver Center
06:36PM 40.0719 -104.9325 127° Southeast 372 428 14,600 -1,020 Descending Denver Center
06:37PM 40.0122 -104.8275 127° Southeast 330 380 14,000 -780 Descending Denver Center
06:38PM 39.9633 -104.7450 128° Southeast 293 337 13,100 -960 Descending Denver Center
06:39PM 39.9061 -104.7742 201° Southwest 245 282 12,100 -540 Descending Denver Center
06:40PM 39.8644 -104.8303 226° Southwest 251 289 12,000 -60 Descending Denver Center
06:41PM 39.7881 -104.8275 178° South 256 295 12,000 -360 Level Denver Center
06:43PM 39.7222 -104.8253 179° South 237 273 11,300 -1,020 Descending Denver Center
06:44PM 39.6856 -104.7681 130° Southeast 238 274 10,000 -1,080 Descending Denver Center
06:45PM 39.7089 -104.6967 67° East 219 252 9,100 -1,440 Descending Denver Center
06:46PM 39.7542 -104.6633 30° Northeast 189 217 7,100 -1,980 Descending Denver Center